createdAt,value
2023-01-29T00:02:53.167Z,91.33
2023-01-29T00:12:58.031Z,89.80
2023-01-29T00:23:01.575Z,91.53
2023-01-29T00:33:07.118Z,80.53
2023-01-29T00:43:28.387Z,84.03
2023-01-29T00:53:33.634Z,91.83
2023-01-29T01:03:42.432Z,86.73
2023-01-29T01:13:47.507Z,89.00
2023-01-29T01:23:52.012Z,88.63
2023-01-29T01:33:57.925Z,86.87
2023-01-29T01:44:05.393Z,85.37
2023-01-29T01:54:15.490Z,84.27
2023-01-29T02:04:40.647Z,89.77
2023-01-29T02:14:46.634Z,90.67
2023-01-29T02:25:28.699Z,90.23
2023-01-29T02:35:42.623Z,93.70
2023-01-29T02:45:52.952Z,82.17
2023-01-29T02:56:05.387Z,91.53
2023-01-29T03:06:20.749Z,87.43
2023-01-29T03:16:32.418Z,88.17
2023-01-29T03:26:53.767Z,89.27
2023-01-29T03:37:03.618Z,96.63
2023-01-29T03:47:18.653Z,89.63
2023-01-29T03:57:35.395Z,87.20
2023-01-29T04:07:43.493Z,89.63
2023-01-29T04:17:54.411Z,84.43
2023-01-29T04:28:12.707Z,92.53
2023-01-29T04:38:29.541Z,93.63
2023-01-29T04:48:49.013Z,93.73
2023-01-29T04:59:00.220Z,89.83
2023-01-29T05:09:04.819Z,89.33
2023-01-29T05:19:10.755Z,90.27
2023-01-29T05:29:14.274Z,86.73
2023-01-29T05:39:19.102Z,88.93
2023-01-29T05:49:22.792Z,85.40
2023-01-29T05:59:28.037Z,93.10
2023-01-29T06:09:31.516Z,91.33
2023-01-29T06:19:36.433Z,104.03
2023-01-29T06:29:39.901Z,93.97
2023-01-29T06:39:45.103Z,85.53
2023-01-29T06:49:48.603Z,91.17
2023-01-29T06:59:53.550Z,83.63
2023-01-29T07:09:56.975Z,86.33
2023-01-29T07:20:01.841Z,87.83
2023-01-29T07:30:06.503Z,87.60
2023-01-29T07:40:13.370Z,82.20
2023-01-29T07:50:17.610Z,87.13
2023-01-29T08:00:23.723Z,84.83
2023-01-29T08:10:27.678Z,86.67
2023-01-29T08:20:32.659Z,88.40
2023-01-29T08:30:36.752Z,90.43
2023-01-29T08:40:41.628Z,88.13
2023-01-29T08:50:45.124Z,86.77
2023-01-29T09:00:50.279Z,88.03
2023-01-29T09:10:53.763Z,92.90
2023-01-29T09:20:58.987Z,88.30
2023-01-29T09:31:03.882Z,92.90
2023-01-29T09:41:24.733Z,95.67
2023-01-29T09:51:35.257Z,93.70
2023-01-29T10:01:48.768Z,95.20
2023-01-29T10:12:03.978Z,91.87
2023-01-29T10:22:44.197Z,97.67
2023-01-29T10:32:48.969Z,97.30
2023-01-29T10:43:04.605Z,100.87
2023-01-29T10:53:34.760Z,98.23
2023-01-29T11:03:40.204Z,94.30
2023-01-29T11:13:50.182Z,97.43
2023-01-29T11:24:09.123Z,101.30
2023-01-29T11:34:20.636Z,95.43
2023-01-29T11:44:34.027Z,91.77
2023-01-29T11:54:44.839Z,98.77
2023-01-29T12:04:50.302Z,99.97
2023-01-29T12:15:07.475Z,105.27
2023-01-29T12:25:24.239Z,92.00
2023-01-29T12:35:32.420Z,98.10
2023-01-29T12:45:38.967Z,93.30
2023-01-29T12:55:47.781Z,95.07
2023-01-29T13:05:56.636Z,103.00
2023-01-29T13:16:02.005Z,98.67
2023-01-29T13:26:07.507Z,96.30
2023-01-29T13:36:19.705Z,99.17
2023-01-29T13:46:24.875Z,91.03
2023-01-29T13:56:47.884Z,90.33
2023-01-29T14:06:54.513Z,95.70
2023-01-29T14:17:03.294Z,96.40
2023-01-29T14:27:20.944Z,95.00
2023-01-29T14:37:36.158Z,91.47
2023-01-29T14:48:16.547Z,90.50
2023-01-29T14:58:26.345Z,91.87
2023-01-29T15:08:39.428Z,122.67
2023-01-29T15:18:44.426Z,99.00
2023-01-29T15:29:03.354Z,93.03
2023-01-29T15:39:18.842Z,90.83
2023-01-29T15:49:31.957Z,93.77
2023-01-29T15:59:46.170Z,91.47
2023-01-29T16:09:52.456Z,113.03
2023-01-29T16:20:00.315Z,103.20
2023-01-29T16:30:08.385Z,110.50
2023-01-29T16:40:23.129Z,122.73
2023-01-29T16:50:40.591Z,112.90
2023-01-29T17:00:54.100Z,108.00
2023-01-29T17:10:59.916Z,115.83
2023-01-29T17:21:03.683Z,130.57
2023-01-29T17:31:09.214Z,93.90
2023-01-29T17:41:20.437Z,106.80
2023-01-29T17:51:25.339Z,110.67
2023-01-29T18:01:28.947Z,115.33
2023-01-29T18:11:35.239Z,116.93
2023-01-29T18:21:38.747Z,114.93
2023-01-29T18:31:43.797Z,101.43
2023-01-29T18:41:49.669Z,97.93
2023-01-29T18:51:58.068Z,98.60
2023-01-29T19:02:03.685Z,110.07
2023-01-29T19:12:09.765Z,116.70
2023-01-29T19:22:13.478Z,96.73
2023-01-29T19:32:20.898Z,106.50
2023-01-29T19:42:24.845Z,115.63
2023-01-29T19:52:50.203Z,119.53
2023-01-29T20:02:54.846Z,116.63
2023-01-29T20:13:00.596Z,115.03
2023-01-29T20:23:07.368Z,118.77
2023-01-29T20:33:15.538Z,116.43
2023-01-29T20:43:23.425Z,115.23
2023-01-29T20:53:30.471Z,104.07
2023-01-29T21:03:34.786Z,105.23
2023-01-29T21:13:40.319Z,104.93
2023-01-29T21:23:46.241Z,122.30
2023-01-29T21:33:51.542Z,121.10
2023-01-29T21:43:55.012Z,118.13
2023-01-29T21:53:59.930Z,110.30
2023-01-29T22:04:03.808Z,112.63
2023-01-29T22:14:09.262Z,110.40
2023-01-29T22:24:12.972Z,103.10
2023-01-29T22:34:17.761Z,103.20
2023-01-29T22:44:21.206Z,104.70
2023-01-29T22:54:26.080Z,104.43
2023-01-29T23:04:29.666Z,106.57
2023-01-29T23:14:34.751Z,105.57
2023-01-29T23:24:38.356Z,102.73
2023-01-29T23:34:43.224Z,102.93
2023-01-29T23:44:46.717Z,101.60
2023-01-29T23:54:51.529Z,96.40
